• Join FlightAware (Why Join?)
  • Login
  • US Flag 
Rudolph Flight #1: Arrived! 
06:33PM EST


 

Airport Tracker/Info


-or-


 

Live Flight TrackerFlight Track Log ✈ EJM685 ✈ 07-Oct-2013 ✈ KTEB - KFTY

Flight Track Log - Related Links

Times and Time Zones

All times are in EDT time to prevent confusion due to time zone crossing. See the EJM685 flight status page for this flight to view local times or setup timezone preferences in your user account.

Time Position Orientation Groundspeed Altitude Reporting Facility
EDT Latitude Longitude Course Direction KTS MPH feet Rate Location/Type
03:43PM 40.8333 -74.1000 270° West 169 194 1,500  Level New York TRACON
03:44PM 40.8333 -74.1667 270° West 174 200 3,400 3,060 Climbing New York TRACON
03:46PM 40.8097 -74.3461 260° West 242 278 11,400 2,880 Climbing New York Center
03:47PM 40.7694 -74.4289 237° Southwest 273 314 12,900 2,820 Climbing New York Center
03:48PM 40.7206 -74.5331 238° Southwest 307 353 17,100 3,060 Climbing New York Center
03:49PM 40.6781 -74.6211 238° Southwest 315 362 19,100 2,400 Climbing New York Center
03:50PM 40.6244 -74.7303 237° Southwest 327 376 21,900 2,760 Climbing New York Center
03:51PM 40.5706 -74.8444 238° Southwest 357 411 24,700 2,700 Climbing New York Center
03:52PM 40.5142 -74.9614 238° Southwest 371 427 27,300 2,400 Climbing New York Center
03:53PM 40.4556 -75.0858 238° Southwest 390 449 29,500 2,160 Climbing New York Center
03:54PM 40.3947 -75.2103 237° Southwest 402 463 31,700 2,280 Climbing New York Center
03:55PM 40.3358 -75.3372 239° Southwest 407 468 34,100 2,520 Climbing New York Center
03:56PM 40.2767 -75.4583 237° Southwest 407 468 36,800 2,820 Climbing New York Center
03:57PM 40.2178 -75.5794 238° Southwest 401 461 39,800 2,160 Climbing New York Center
03:58PM 40.1633 -75.6872 237° Southwest 384 442 41,200 1,020 Climbing New York Center
03:59PM 40.0983 -75.7939 231° Southwest 379 436 41,900 900 Climbing New York Center
04:00PM 40.0333 -75.9003 231° Southwest 384 442 43,000 900 Climbing New York Center
04:01PM 39.9575 -76.0111 228° Southwest 390 449 43,800 780 Climbing New York Center
04:02PM 39.8881 -76.1197 230° Southwest 390 449 44,600 840 Climbing New York Center
04:04PM 39.7803 -76.2881 230° Southwest 397 457 46,000 840 Climbing Washington Center
04:05PM 39.7089 -76.3953 229° Southwest 397 457 46,800 480 Climbing Washington Center
04:06PM 39.6372 -76.5050 230° Southwest 402 463 47,000 60 Climbing Washington Center
04:07PM 39.5636 -76.6117 228° Southwest 402 463 47,000  Level Washington Center
04:08PM 39.4917 -76.7236 230° Southwest 402 463 47,000  Level Washington Center
04:09PM 39.4175 -76.8353 229° Southwest 402 463 47,000  Level Washington Center
04:10PM 39.3436 -76.9442 229° Southwest 402 463 47,000  Level Washington Center
04:11PM 39.2692 -77.0608 231° Southwest 402 463 47,000  Level Washington Center
04:12PM 39.1969 -77.1692 229° Southwest 402 463 47,000  Level Washington Center
04:13PM 39.1247 -77.2772 229° Southwest 402 463 47,000  Level Washington Center
04:14PM 39.0500 -77.3850 228° Southwest 402 463 47,000  Level Washington Center
04:15PM 38.9775 -77.4928 229° Southwest 402 463 47,000  Level Washington Center
04:16PM 38.8922 -77.6214 230° Southwest 411 473 47,000  Level Washington Center
04:17PM 38.8344 -77.7075 229° Southwest 411 473 47,000  Level Washington Center
04:18PM 38.7403 -77.8433 228° Southwest 426 490 47,000  Level Washington Center
04:19PM 38.6692 -77.9503 230° Southwest 426 490 47,000  Level Washington Center
04:20PM 38.5942 -78.0594 229° Southwest 421 484 47,000  Level Washington Center
04:21PM 38.5211 -78.1658 229° Southwest 421 484 47,000  Level Washington Center
04:22PM 38.4606 -78.2564 230° Southwest 421 484 47,000  Level Washington Center
04:23PM 38.3703 -78.3856 228° Southwest 421 484 47,000  Level Washington Center
04:24PM 38.3033 -78.4811 228° Southwest 416 479 47,000  Level Washington Center
04:25PM 38.2275 -78.5969 230° Southwest 411 473 47,000  Level Washington Center
04:26PM 38.1581 -78.6947 228° Southwest 406 467 47,000  Level Washington Center
04:27PM 38.0867 -78.7997 229° Southwest 406 467 47,000  Level Washington Center
04:28PM 38.0128 -78.9047 228° Southwest 400 460 47,000  Level Washington Center
04:29PM 37.9325 -79.0169 228° Southwest 400 460 47,000  Level Washington Center
04:30PM 37.8628 -79.1164 228° Southwest 400 460 47,000  Level Washington Center
04:31PM 37.7889 -79.2181 227° Southwest 400 460 47,000  Level Washington Center
04:32PM 37.7192 -79.3172 228° Southwest 400 460 47,000  Level Washington Center
04:33PM 37.6428 -79.4236 228° Southwest 405 466 47,000  Level Washington Center
04:34PM 37.5750 -79.5172 228° Southwest 405 466 47,000  Level Washington Center
04:35PM 37.4919 -79.6306 227° Southwest 405 466 47,000  Level Washington Center
04:36PM 37.4131 -79.7442 229° Southwest 407 468 47,000  Level Washington Center
04:37PM 37.3386 -79.8447 227° Southwest 412 474 47,000  Level Washington Center
04:38PM 37.2728 -79.9347 227° Southwest 407 468 47,000  Level Washington Center
04:39PM 37.2006 -80.0300 226° Southwest 395 455 47,000  Level Washington Center
04:40PM 37.1022 -80.1639 227° Southwest 391 450 47,000  Level Atlanta Center
04:41PM 37.0261 -80.2639 226° Southwest 391 450 47,000  Level Atlanta Center
04:42PM 36.9586 -80.3711 232° Southwest 391 450 47,000  Level Atlanta Center
04:43PM 36.8908 -80.4753 231° Southwest 391 450 47,000  Level Atlanta Center
04:44PM 36.8128 -80.5903 230° Southwest 391 450 47,000  Level Atlanta Center
04:45PM 36.7589 -80.6756 232° Southwest 391 450 47,000  Level Atlanta Center
04:46PM 36.6825 -80.7903 230° Southwest 391 450 47,000  Level Atlanta Center
04:47PM 36.6167 -80.8964 232° Southwest 396 456 47,000  Level Atlanta Center
04:48PM 36.5403 -81.0131 231° Southwest 401 461 47,000  Level Atlanta Center
04:49PM 36.4678 -81.1189 230° Southwest 401 461 47,000  Level Atlanta Center
04:50PM 36.3992 -81.2219 230° Southwest 401 461 47,000  Level Atlanta Center
04:51PM 36.3289 -81.3328 232° Southwest 401 461 47,000  Level Atlanta Center
04:52PM 36.2561 -81.4408 230° Southwest 407 468 47,000  Level Atlanta Center
04:53PM 36.1853 -81.5458 230° Southwest 407 468 47,000 -360 Level Atlanta Center
04:54PM 36.1122 -81.6561 231° Southwest 413 475 46,300 -1,140 Descending Atlanta Center
04:55PM 36.0414 -81.7611 230° Southwest 406 467 44,800 -1,560 Descending Atlanta Center
04:56PM 35.9703 -81.8656 230° Southwest 411 473 43,200 -1,620 Descending Atlanta Center
04:57PM 35.8989 -81.9700 230° Southwest 411 473 41,600 -1,560 Descending Atlanta Center
04:58PM 35.8297 -82.0717 230° Southwest 406 467 40,100 -1,560 Descending Atlanta Center
04:59PM 35.7603 -82.1731 230° Southwest 394 453 38,500 -1,620 Descending Atlanta Center
05:00PM 35.6869 -82.2772 229° Southwest 394 453 36,900 -1,560 Descending Atlanta Center
05:01PM 35.6153 -82.3833 230° Southwest 405 466 35,400 -1,500 Descending Atlanta Center
05:02PM 35.5456 -82.4817 229° Southwest 415 478 34,000 -720 Descending Atlanta Center
05:03PM 35.4678 -82.5878 228° Southwest 415 478 34,000 -300 Level Atlanta Center
05:04PM 35.3958 -82.6961 231° Southwest 421 484 33,400 -1,200 Descending Atlanta Center
05:05PM 35.3178 -82.8069 229° Southwest 416 479 31,600 -1,860 Descending Atlanta Center
05:06PM 35.2417 -82.9147 229° Southwest 416 479 29,700 -1,860 Descending Atlanta Center
05:07PM 35.1675 -83.0200 229° Southwest 416 479 27,900 -1,860 Descending Atlanta Center
05:08PM 35.0953 -83.1250 230° Southwest 411 473 26,000 -1,920 Descending Atlanta Center
05:09PM 35.0208 -83.2272 228° Southwest 411 473 24,100 -1,800 Descending Atlanta Center
05:10PM 34.9400 -83.3242 225° Southwest 411 473 22,400 -1,380 Descending Atlanta Center
05:11PM 34.8531 -83.4286 225° Southwest 416 479 21,400 -1,560 Descending Atlanta Center
05:12PM 34.7719 -83.5256 224° Southwest 421 484 19,300 -2,100 Descending Atlanta Center
05:13PM 34.6931 -83.6169 224° Southwest 405 466 17,200 -1,980 Descending Atlanta Center
05:14PM 34.6161 -83.7081 224° Southwest 388 447 15,400 -1,860 Descending Atlanta Center
05:15PM 34.5433 -83.7967 225° Southwest 382 440 13,500 -1,800 Descending Atlanta Center
05:16PM 34.4683 -83.8875 225° Southwest 370 426 11,800 -1,620 Descending Atlanta Center
05:17PM 34.4078 -83.9608 225° Southwest 328 377 10,300 -1,500 Descending Atlanta Center
05:18PM 34.3536 -84.0261 225° Southwest 298 343 8,800 -1,200 Descending Atlanta Center
05:19PM 34.2931 -84.0867 220° Southwest 292 336 8,000 -480 Descending Atlanta Center
05:20PM 34.2200 -84.1242 203° Southwest 292 336 7,900 -600 Descending Atlanta Center
05:21PM 34.1511 -84.1692 208° Southwest 286 329 6,800 -1,020 Descending Atlanta Center
05:22PM 34.1000 -84.2167 218° Southwest 262 302 6,000 -840 Descending Atlanta TRACON
05:23PM 34.0333 -84.2500 203° Southwest 224 258 5,200 -960 Descending Atlanta TRACON
05:24PM 33.9833 -84.2833 209° Southwest 223 257 4,100 -600 Descending Atlanta TRACON
05:25PM 33.9167 -84.3167 203° Southwest 227 261 4,000 -240 Descending Atlanta TRACON
05:26PM 33.8667 -84.3500 209° Southwest 213 245 3,600 -480 Descending Atlanta TRACON
05:27PM 33.8167 -84.3833 209° Southwest 192 221 3,100 -660 Descending Atlanta TRACON
05:28PM 33.8000 -84.4167 239° Southwest 154 177 2,300 -780 Descending Atlanta TRACON
05:29PM 33.7833 -84.4667 248° West 127 146 1,600 -720 Descending Atlanta TRACON
05:31PM 33.7667 -84.5167 220° Southwest  Level FlightAware Approximate
05:38PM 33.7791 -84.5214 220° Southwest  Level Estimated